Otumpa, Argentina
Current Conditions -  °F | °C
As of 6:00 AM on Sunday 26 Oct 2014 (Local Time) from SANT Reporting Station
Clear Clear  
Wind Chill: 72°   Ceiling: Unl
Heat Index: 72°   Visibility: 5mi
Dew Point: 55°   Wind: 7mph
Humidity: 57%   Direction: 270°W
Pressure: 29.77"   Gusts: NA
Location:  27.32°S, 62.22°W
Report Text: SANT 260900Z 27006KT 8000 NSC 22/13 Q1008
Loading
Personal Weather Stations






























Interactive Weather Map New forecast layout! Learn more

10-Day Weather Forecast

Advertisements
Track Severe Weather on mobile